Gramercy, Louisiana
Current Conditions -  °F | °C
As of 12:15 AM on Monday 22 Dec 2014 (Local Time) from K1L0 Reporting Station
Haze Haze  
Wind Chill: 57°   Ceiling: 300
Heat Index: 57°   Visibility: 3mi
Dew Point: 55°   Wind: 0mph
Humidity: 91%   Direction: NA
Pressure: 29.92"   Gusts: NA
Location:  30.05°N, 90.69°W
Report Text: K1L0 220615Z AUTO 00000KT 3SM BR OVC003 14/13 A2992 RMK AO2 LTG DSNT S AND SW T01400125
Loading
Personal Weather Stations






























Interactive Weather Map New forecast layout! Learn more

10-Day Weather Forecast

Advertisements
Track Severe Weather on mobile